• Join FlightAware (Why Join?)
  • Login
  • US Flag 
06:45PM EDT


 

Airport Tracker/Info


-or-


 

Live Flight TrackerFlight Track Log ✈ CSZ9702 ✈ 28-Aug-2014 ✈ ZSWX / WUX - ZGSZ / SZX

Flight Track Log - Related Links

Times and Time Zones

All times are in EDT time to prevent confusion due to time zone crossing. See the CSZ9702 flight status page for this flight to view local times or setup timezone preferences in your user account.

Time Position Orientation Groundspeed Altitude Reporting Facility
EDT Latitude Longitude Course Direction KTS MPH feet Rate Location/Type
09:59AM 30.9787 120.0055 215° Southwest  Level Estimated
10:00AM 30.9049 119.9454 215° Southwest  Level Estimated
10:01AM 30.8311 119.8853 215° Southwest  Level Estimated
10:02AM 30.7572 119.8253 215° Southwest  Level Estimated
10:03AM 30.6833 119.7654 215° Southwest  Level Estimated
10:04AM 30.6094 119.7056 215° Southwest  Level Estimated
10:05AM 30.5355 119.6458 215° Southwest  Level Estimated
10:06AM 30.4615 119.5862 215° Southwest  Level Estimated
10:07AM 30.3876 119.5267 215° Southwest  Level Estimated
10:08AM 30.3136 119.4672 215° Southwest  Level Estimated
10:09AM 30.2395 119.4079 215° Southwest  Level Estimated
10:10AM 30.1654 119.3486 215° Southwest  Level Estimated
10:11AM 30.0914 119.2894 215° Southwest  Level Estimated
10:12AM 30.0172 119.2303 215° Southwest  Level Estimated
10:13AM 29.9431 119.1713 215° Southwest  Level Estimated
10:14AM 29.8689 119.1124 215° Southwest  Level Estimated
10:15AM 29.7947 119.0536 215° Southwest  Level Estimated
10:16AM 29.7205 118.9948 215° Southwest  Level Estimated
10:17AM 29.6462 118.9361 214° Southwest  Level Estimated
10:18AM 29.5720 118.8776 214° Southwest  Level Estimated
10:19AM 29.4977 118.8191 214° Southwest  Level Estimated
10:20AM 29.4233 118.7607 214° Southwest  Level Estimated
10:21AM 29.3490 118.7024 214° Southwest  Level Estimated
10:22AM 29.2746 118.6442 214° Southwest  Level Estimated
10:23AM 29.2002 118.5860 214° Southwest  Level Estimated
10:24AM 29.1258 118.5280 214° Southwest  Level Estimated
10:25AM 29.0513 118.4700 214° Southwest  Level Estimated
10:26AM 28.9769 118.4121 214° Southwest  Level Estimated
10:27AM 28.9024 118.3543 214° Southwest  Level Estimated
10:28AM 28.8278 118.2966 214° Southwest  Level Estimated
10:29AM 28.7533 118.2389 214° Southwest  Level Estimated
10:30AM 28.6787 118.1814 214° Southwest  Level Estimated
10:31AM 28.6041 118.1239 214° Southwest  Level Estimated
10:32AM 28.5295 118.0665 214° Southwest  Level Estimated
10:33AM 28.4548 118.0092 214° Southwest  Level Estimated
10:34AM 28.3802 117.9519 214° Southwest  Level Estimated
10:35AM 28.3055 117.8948 214° Southwest  Level Estimated
10:36AM 28.2307 117.8377 214° Southwest  Level Estimated
10:37AM 28.1560 117.7807 214° Southwest  Level Estimated
10:38AM 28.0812 117.7238 214° Southwest  Level Estimated
10:39AM 28.0065 117.6670 214° Southwest  Level Estimated
10:40AM 27.9316 117.6102 214° Southwest  Level Estimated
10:41AM 27.8568 117.5535 214° Southwest  Level Estimated
10:42AM 27.7819 117.4969 214° Southwest  Level Estimated
10:43AM 27.7071 117.4404 214° Southwest  Level Estimated
10:44AM 27.6322 117.3840 214° Southwest  Level Estimated
10:45AM 27.5572 117.3276 214° Southwest  Level Estimated
10:46AM 27.4823 117.2713 214° Southwest  Level Estimated
10:47AM 27.4073 117.2151 214° Southwest  Level Estimated
10:48AM 27.3323 117.1590 214° Southwest  Level Estimated
10:49AM 27.2573 117.1029 214° Southwest  Level Estimated
10:50AM 27.1822 117.0469 214° Southwest  Level Estimated
10:51AM 27.1072 116.9910 214° Southwest  Level Estimated
10:52AM 27.0321 116.9352 214° Southwest  Level Estimated
10:53AM 26.9570 116.8794 213° Southwest  Level Estimated
10:54AM 26.8818 116.8237 213° Southwest  Level Estimated
10:55AM 26.8067 116.7681 213° Southwest  Level Estimated
10:56AM 26.7315 116.7126 213° Southwest  Level Estimated
10:57AM 26.6563 116.6571 213° Southwest  Level Estimated
10:58AM 26.5811 116.6017 213° Southwest  Level Estimated
10:59AM 26.5059 116.5464 213° Southwest  Level Estimated
11:00AM 26.4306 116.4912 213° Southwest  Level Estimated
11:01AM 26.3553 116.4360 213° Southwest  Level Estimated
11:02AM 26.2800 116.3809 213° Southwest  Level Estimated
11:03AM 26.2047 116.3259 213° Southwest  Level Estimated
11:04AM 26.1294 116.2709 213° Southwest  Level Estimated
11:05AM 26.0540 116.2160 213° Southwest  Level Estimated
11:06AM 25.9786 116.1612 213° Southwest  Level Estimated
11:07AM 25.9032 116.1064 213° Southwest  Level Estimated
11:08AM 25.8278 116.0518 213° Southwest  Level Estimated
11:09AM 25.7523 115.9971 213° Southwest  Level Estimated
11:10AM 25.6769 115.9426 213° Southwest  Level Estimated
11:11AM 25.6014 115.8882 213° Southwest  Level Estimated
11:12AM 25.5259 115.8337 213° Southwest  Level Estimated
11:13AM 25.4504 115.7794 213° Southwest  Level Estimated
11:14AM 25.3748 115.7252 213° Southwest  Level Estimated
11:15AM 25.2992 115.6710 213° Southwest  Level Estimated
11:16AM 25.2237 115.6168 213° Southwest  Level Estimated
11:17AM 25.1481 115.5628 213° Southwest  Level Estimated
11:18AM 25.0724 115.5088 213° Southwest  Level Estimated
11:19AM 24.9968 115.4548 213° Southwest  Level Estimated
11:20AM 24.9211 115.4010 213° Southwest  Level Estimated
11:21AM 24.8454 115.3472 213° Southwest  Level Estimated
11:22AM 24.7697 115.2934 213° Southwest  Level Estimated
11:23AM 24.6940 115.2398 213° Southwest  Level Estimated
11:24AM 24.6183 115.1862 213° Southwest  Level Estimated
11:25AM 24.5425 115.1326 213° Southwest  Level Estimated
11:26AM 24.4667 115.0792 213° Southwest  Level Estimated
11:27AM 24.3909 115.0258 213° Southwest  Level Estimated
11:28AM 24.3151 114.9724 213° Southwest  Level Estimated
11:29AM 24.2393 114.9192 213° Southwest  Level Estimated
11:30AM 24.1634 114.8659 213° Southwest  Level Estimated
11:31AM 24.0875 114.8128 213° Southwest  Level Estimated
11:32AM 24.0117 114.7597 213° Southwest  Level Estimated
11:33AM 23.9357 114.7067 213° Southwest  Level Estimated
11:34AM 23.8598 114.6537 213° Southwest  Level Estimated
11:35AM 23.7839 114.6008 213° Southwest  Level Estimated
11:36AM 23.7079 114.5480 212° Southwest  Level Estimated
11:37AM 23.6319 114.4952 212° Southwest  Level Estimated
11:38AM 23.5559 114.4425 212° Southwest  Level Estimated
11:39AM 23.4799 114.3898 212° Southwest  Level Estimated
11:40AM 23.4039 114.3372 212° Southwest  Level Estimated
11:41AM 23.3278 114.2847 212° Southwest  Level Estimated
11:42AM 23.2518 114.2322 212° Southwest  Level Estimated
11:43AM 23.1757 114.1798 212° Southwest  Level Estimated
11:44AM 23.0996 114.1274 212° Southwest  Level Estimated
11:45AM 23.0235 114.0751 212° Southwest  Level Estimated
11:46AM 22.9473 114.0229 212° Southwest  Level Estimated
11:47AM 22.8711 113.9707 212° Southwest  Level Estimated
11:48AM 22.7950 113.9186 212° Southwest  Level Estimated
11:49AM 22.7188 113.8665 212° Southwest  Level Estimated
11:50AM 22.6426 113.8145 212° Southwest  Level Estimated
11:51AM 22.6395 113.8124 212° Southwest  Level Estimated
11:52AM 22.6395 113.8124 North  Level Estimated
11:53AM 22.6395 113.8124 North  Level Estimated
11:54AM 22.6395 113.8124 North  Level Estimated
11:55AM 22.6395 113.8124 North  Level Estimated
11:56AM 22.6395 113.8124 North  Level Estimated
11:57AM 22.6395 113.8124 North  Level Estimated
11:58AM 22.6395 113.8124 North  Level Estimated
11:59AM 22.6395 113.8124 North  Level Estimated